Time;durP1;ratioP1;P1;durP2;ratioP2;P2;SDS_P1;SDS_P2;PMS_P1;PMS_P2;Temp;Humidity;BMP_temperature;BMP_pressure;BME280_temperature;BME280_humidity;BME280_pressure;Samples;Min_cycle;Max_cycle;Signal;HPM_P1;HPM_P2
2022/06/07 00:01:38;;;;;;;1.17;1.07;;;23.90;57.50;;;;;;5051139;28;20417;-78
2022/06/07 00:04:05;;;;;;;0.90;0.60;;;24.10;57.80;;;;;;5050867;28;20974;-78
2022/06/07 00:06:31;;;;;;;0.90;0.90;;;23.90;57.60;;;;;;5032882;28;20466;-78
2022/06/07 00:08:57;;;;;;;0.70;0.70;;;24.40;58.00;;;;;;5032957;28;20883;-78
2022/06/07 00:11:23;;;;;;;0.77;0.77;;;24.10;58.00;;;;;;5050699;28;20196;-78
2022/06/07 00:13:49;;;;;;;1.00;1.00;;;;;;;;;;5050697;28;20180;-78
2022/06/07 00:16:16;;;;;;;0.67;0.67;;;23.90;56.20;;;;;;5051263;28;20932;-78
2022/06/07 00:18:43;;;;;;;1.10;1.00;;;24.00;57.90;;;;;;5051354;28;20442;-78
2022/06/07 00:21:09;;;;;;;0.87;0.87;;;24.70;58.20;;;;;;5066160;28;20446;-78
2022/06/07 00:23:35;;;;;;;1.90;0.80;;;23.80;58.00;;;;;;5071051;28;20421;-79
2022/06/07 00:26:02;;;;;;;0.60;0.60;;;24.00;58.20;;;;;;5040276;28;20940;-78
2022/06/07 00:28:28;;;;;;;1.03;1.03;;;24.40;58.60;;;;;;5051014;28;20799;-78
2022/06/07 00:30:54;;;;;;;1.50;1.00;;;24.00;58.20;;;;;;5050296;28;20441;-78
2022/06/07 00:33:22;;;;;;;2.00;0.90;;;24.30;58.50;;;;;;5050744;28;20414;-78
2022/06/07 00:35:48;;;;;;;0.80;0.67;;;23.90;58.10;;;;;;5050929;28;20808;-78
2022/06/07 00:38:13;;;;;;;1.17;1.17;;;23.90;58.40;;;;;;5050744;28;20414;-78
2022/06/07 00:40:41;;;;;;;0.93;0.93;;;24.10;58.80;;;;;;5050231;28;20456;-78
2022/06/07 00:43:06;;;;;;;1.37;1.03;;;23.90;58.30;;;;;;5050597;28;20397;-79
2022/06/07 00:45:32;;;;;;;0.90;0.80;;;23.90;59.00;;;;;;5050912;28;20450;-78
2022/06/07 00:47:58;;;;;;;1.00;1.00;;;24.10;58.50;;;;;;5050844;28;20176;-79
2022/06/07 00:50:39;;;;;;;0.90;0.80;;;24.80;58.90;;;;;;5050464;28;20328;-79
2022/06/07 00:53:15;;;;;;;1.97;0.60;;;24.10;80.70;;;;;;5050318;28;20173;-79
2022/06/07 00:55:41;;;;;;;0.60;0.60;;;23.90;58.50;;;;;;5032310;28;21048;-79
2022/06/07 00:58:06;;;;;;;1.60;1.10;;;22.90;80.50;;;;;;5050740;28;20498;-79
2022/06/07 01:00:32;;;;;;;0.60;0.60;;;23.90;58.70;;;;;;5050042;28;20465;-79
2022/06/07 01:02:57;;;;;;;0.80;0.80;;;23.90;58.80;;;;;;5032445;28;20267;-79
2022/06/07 01:05:23;;;;;;;0.60;0.60;;;23.80;58.70;;;;;;5032391;28;20180;-79
2022/06/07 01:10:44;;;;;;;0.83;0.83;;;24.00;57.80;;;;;;5049477;28;20278;-79
2022/06/07 01:13:12;;;;;;;0.90;0.90;;;23.90;58.00;;;;;;5050420;28;20438;-79
2022/06/07 01:15:37;;;;;;;1.00;1.00;;;25.10;59.10;;;;;;5049925;28;20423;-79
2022/06/07 01:18:03;;;;;;;0.60;0.60;;;23.90;80.20;;;;;;5032467;28;20441;-78
2022/06/07 01:20:30;;;;;;;0.80;0.80;;;23.80;58.90;;;;;;5054795;28;20219;-79
2022/06/07 01:22:56;;;;;;;0.90;0.70;;;23.80;58.80;;;;;;5049983;28;20426;-79
2022/06/07 01:25:22;;;;;;;0.80;0.80;;;24.10;59.30;;;;;;5049866;28;20430;-79
2022/06/07 01:27:48;;;;;;;0.80;0.80;;;23.80;59.10;;;;;;5050006;28;20493;-79
2022/06/07 01:30:14;;;;;;;0.80;0.80;;;24.00;59.20;;;;;;5049632;28;20446;-79
2022/06/07 01:32:39;;;;;;;1.30;0.70;;;23.80;59.20;;;;;;5032439;28;20177;-79
2022/06/07 01:35:06;;;;;;;0.90;0.60;;;23.80;59.10;;;;;;5030161;28;20574;-79
2022/06/07 01:37:32;;;;;;;0.60;0.60;;;23.80;58.80;;;;;;5050072;28;20259;-79
2022/06/07 01:42:41;;;;;;;0.87;0.60;;;24.00;58.40;;;;;;5050006;28;20569;-78
2022/06/07 01:45:07;;;;;;;0.80;0.60;;;22.20;58.50;;;;;;5049904;28;20431;-79
2022/06/07 01:47:34;;;;;;;0.60;0.60;;;23.80;59.20;;;;;;5050037;28;20243;-79
2022/06/07 01:50:02;;;;;;;0.70;0.60;;;24.00;59.50;;;;;;5049863;28;20446;-79
2022/06/07 01:52:30;;;;;;;2.63;0.50;;;24.00;59.30;;;;;;5033890;28;20918;-79
2022/06/07 01:54:56;;;;;;;0.60;0.60;;;24.10;59.70;;;;;;5049780;28;20863;-79
2022/06/07 01:57:23;;;;;;;0.63;0.60;;;;;;;;;;5049720;28;20415;-79
2022/06/07 01:59:49;;;;;;;1.00;0.70;;;23.90;58.30;;;;;;5049679;28;20438;-78
2022/06/07 02:02:15;;;;;;;0.50;0.47;;;24.60;59.90;;;;;;5049526;28;20898;-79
2022/06/07 02:04:42;;;;;;;0.60;0.60;;;24.10;59.80;;;;;;5049712;28;20423;-79
2022/06/07 02:07:09;;;;;;;0.50;0.50;;;24.00;59.60;;;;;;5049400;28;20597;-79
2022/06/07 02:09:36;;;;;;;0.50;0.40;;;24.60;59.70;;;;;;5043733;28;20446;-79
2022/06/07 02:12:02;;;;;;;0.50;0.50;;;23.80;59.50;;;;;;5029652;28;20420;-79
2022/06/07 02:14:29;;;;;;;0.60;0.60;;;24.00;81.60;;;;;;5041951;28;20433;-79
2022/06/07 02:16:55;;;;;;;0.50;0.50;;;23.80;59.30;;;;;;5049908;28;20448;-79
2022/06/07 02:19:20;;;;;;;0.70;0.50;;;24.00;76.90;;;;;;5049767;28;20418;-79
2022/06/07 02:21:46;;;;;;;0.80;0.50;;;23.70;59.70;;;;;;5051302;28;20188;-79
2022/06/07 02:24:12;;;;;;;0.50;0.40;;;24.00;59.80;;;;;;5053528;28;20180;-78
2022/06/07 02:26:56;;;;;;;0.50;0.40;;;24.00;59.60;;;;;;5052248;28;20200;-79
2022/06/07 02:29:30;;;;;;;0.57;0.50;;;23.80;82.00;;;;;;5052706;28;20527;-79
2022/06/07 02:32:01;;;;;;;0.50;0.40;;;23.80;58.50;;;;;;5052313;28;20567;-79
2022/06/07 02:34:27;;;;;;;0.50;0.40;;;24.00;59.90;;;;;;5052614;28;20402;-79
2022/06/07 02:36:56;;;;;;;0.90;0.60;;;24.20;59.90;;;;;;5052634;28;20402;-79
2022/06/07 02:39:24;;;;;;;0.60;0.60;;;24.00;81.00;;;;;;5052437;28;20225;-78
2022/06/07 02:41:50;;;;;;;0.50;0.50;;;23.80;59.80;;;;;;5052020;28;20429;-79
2022/06/07 02:44:16;;;;;;;0.70;0.60;;;23.90;59.50;;;;;;5023933;28;20424;-79
2022/06/07 02:46:42;;;;;;;0.50;0.50;;;23.90;60.30;;;;;;5032620;28;20458;-79
2022/06/07 02:49:08;;;;;;;0.50;0.40;;;23.80;59.80;;;;;;5032753;28;20412;-79
2022/06/07 02:51:34;;;;;;;0.50;0.50;;;24.40;60.50;;;;;;5014428;28;20221;-79
2022/06/07 02:54:00;;;;;;;0.50;0.47;;;23.80;59.70;;;;;;5044352;28;20903;-79
2022/06/07 02:56:26;;;;;;;1.37;0.67;;;;;;;;;;5052491;28;20194;-79
2022/06/07 02:58:51;;;;;;;1.33;0.50;;;;;;;;;;5052381;28;20215;-79
2022/06/07 03:01:17;;;;;;;0.60;0.60;;;;;;;;;;5052165;28;20516;-79
2022/06/07 03:03:43;;;;;;;0.57;0.50;;;23.70;57.90;;;;;;5034299;28;20449;-79
2022/06/07 03:06:09;;;;;;;0.50;0.40;;;22.70;59.10;;;;;;5052024;28;20572;-79
2022/06/07 03:08:35;;;;;;;0.40;0.40;;;24.30;59.70;;;;;;5052397;28;20169;-79
2022/06/07 03:11:01;;;;;;;2.50;0.60;;;23.50;82.80;;;;;;5051916;28;20200;-79
2022/06/07 03:13:27;;;;;;;0.50;0.40;;;24.20;60.00;;;;;;5052904;28;20851;-79
2022/06/07 03:15:53;;;;;;;0.50;0.47;;;23.80;59.60;;;;;;5051728;28;20225;-79
2022/06/07 03:18:19;;;;;;;0.53;0.53;;;24.10;59.60;;;;;;5052065;28;20825;-79
2022/06/07 03:20:48;;;;;;;0.80;0.40;;;24.00;59.40;;;;;;5033609;28;20609;-79
2022/06/07 03:23:14;;;;;;;3.60;0.47;;;24.20;59.90;;;;;;5050487;28;20789;-79
2022/06/07 03:25:40;;;;;;;0.50;0.47;;;24.20;59.90;;;;;;5051687;28;20427;-79
2022/06/07 03:28:06;;;;;;;0.50;0.40;;;25.00;60.40;;;;;;5052097;28;20183;-79
2022/06/07 03:30:31;;;;;;;0.50;0.40;;;23.70;59.50;;;;;;5051917;28;20196;-79
2022/06/07 03:32:58;;;;;;;4.80;0.40;;;24.20;60.10;;;;;;5050747;28;20427;-79
2022/06/07 03:35:24;;;;;;;0.50;0.40;;;24.10;59.60;;;;;;5052041;28;20575;-79
2022/06/07 03:37:50;;;;;;;1.80;0.50;;;24.10;60.10;;;;;;5051765;28;20426;-79
2022/06/07 03:40:42;;;;;;;1.00;0.50;;;24.30;60.20;;;;;;5033738;28;20283;-79
2022/06/07 03:43:03;;;;;;;0.50;0.40;;;24.10;59.60;;;;;;5051523;28;20719;-79
2022/06/07 03:45:29;;;;;;;0.73;0.73;;;24.20;59.80;;;;;;5052283;28;20580;-79
2022/06/07 03:47:55;;;;;;;0.50;0.40;;;24.70;60.00;;;;;;5051869;28;20470;-79
2022/06/07 03:50:20;;;;;;;0.50;0.40;;;24.60;60.10;;;;;;5051638;28;20203;-78
2022/06/07 03:52:46;;;;;;;0.50;0.50;;;24.10;59.90;;;;;;5051955;28;20501;-79
2022/06/07 03:55:11;;;;;;;0.50;0.50;;;24.20;60.00;;;;;;5052205;28;20317;-79
2022/06/07 03:57:37;;;;;;;0.50;0.47;;;23.60;59.60;;;;;;5052364;28;20861;-79
2022/06/07 04:00:06;;;;;;;0.50;0.47;;;24.10;60.20;;;;;;5051369;28;20219;-79
2022/06/07 04:02:32;;;;;;;0.50;0.40;;;23.70;59.20;;;;;;5051158;28;20196;-79
2022/06/07 04:04:58;;;;;;;0.50;0.47;;;23.70;59.70;;;;;;5051530;28;20439;-79
2022/06/07 04:10:08;;;;;;;0.50;0.40;;;23.70;59.10;;;;;;5051427;28;20199;-79
2022/06/07 04:12:33;;;;;;;0.80;0.50;;;23.60;60.10;;;;;;5051239;28;20894;-79
2022/06/07 04:14:59;;;;;;;2.10;0.60;;;24.50;60.40;;;;;;5033397;28;20489;-79
2022/06/07 04:17:25;;;;;;;2.77;0.60;;;24.10;60.10;;;;;;5051406;28;20180;-79
2022/06/07 04:19:50;;;;;;;0.70;0.50;;;24.00;60.30;;;;;;5051510;28;20203;-79
2022/06/07 04:22:16;;;;;;;0.50;0.40;;;;;;;;;;5050933;28;20195;-79
2022/06/07 04:24:42;;;;;;;0.60;0.60;;;23.70;57.90;;;;;;5051366;28;20181;-79
2022/06/07 04:27:07;;;;;;;0.50;0.40;;;24.20;60.70;;;;;;5051062;28;20462;-79
2022/06/07 04:29:33;;;;;;;0.73;0.73;;;23.60;60.10;;;;;;5051051;28;20203;-79
2022/06/07 04:31:58;;;;;;;0.60;0.60;;;23.60;60.00;;;;;;5050814;28;20263;-79
2022/06/07 04:34:24;;;;;;;0.60;0.47;;;23.60;59.90;;;;;;5050786;28;20226;-79
2022/06/07 04:36:49;;;;;;;0.50;0.50;;;24.00;59.90;;;;;;5050823;28;20180;-79
2022/06/07 04:39:15;;;;;;;0.50;0.50;;;23.70;79.90;;;;;;5050720;28;20336;-79
2022/06/07 04:41:41;;;;;;;0.53;0.53;;;23.60;60.40;;;;;;5050736;28;20620;-79
2022/06/07 04:44:06;;;;;;;0.50;0.50;;;23.60;59.80;;;;;;5050512;28;20267;-79
2022/06/07 04:46:32;;;;;;;0.50;0.50;;;23.80;60.00;;;;;;5050224;28;20199;-79
2022/06/07 04:48:58;;;;;;;0.50;0.40;;;23.90;60.10;;;;;;5050546;28;20250;-79
2022/06/07 04:51:27;;;;;;;0.90;0.40;;;24.30;60.30;;;;;;5050639;28;20204;-79
2022/06/07 04:53:55;;;;;;;2.80;0.50;;;24.70;60.10;;;;;;5050846;28;20180;-78
2022/06/07 04:56:23;;;;;;;0.50;0.40;;;23.90;59.70;;;;;;5050580;28;20419;-79
2022/06/07 04:58:50;;;;;;;0.60;0.60;;;23.50;59.40;;;;;;5051003;28;20906;-79
2022/06/07 05:01:24;;;;;;;0.40;0.40;;;23.80;60.10;;;;;;5050338;28;20434;-79
2022/06/07 05:03:52;;;;;;;0.50;0.50;;;24.20;60.00;;;;;;5050078;28;20423;-78
2022/06/07 05:06:17;;;;;;;0.80;0.60;;;23.90;59.70;;;;;;5050109;28;20981;-79
2022/06/07 05:08:43;;;;;;;0.50;0.40;;;;;;;;;;5048705;28;20419;-79
2022/06/07 05:11:09;;;;;;;0.50;0.50;;;23.60;57.70;;;;;;5049013;28;20258;-79
2022/06/07 05:13:36;;;;;;;0.60;0.50;;;23.80;59.90;;;;;;5049706;28;20407;-79
2022/06/07 05:16:02;;;;;;;0.70;0.70;;;24.00;59.70;;;;;;5049519;28;20177;-79
2022/06/07 05:18:28;;;;;;;0.50;0.50;;;23.60;59.40;;;;;;5049499;28;20752;-79
2022/06/07 05:20:54;;;;;;;0.77;0.73;;;23.50;59.60;;;;;;5049405;28;20444;-79
2022/06/07 05:23:19;;;;;;;0.70;0.70;;;23.90;59.90;;;;;;5049523;28;20176;-79
2022/06/07 05:26:09;;;;;;;0.60;0.60;;;23.90;59.80;;;;;;5049391;28;20563;-79
2022/06/07 05:28:37;;;;;;;0.50;0.50;;;23.60;58.20;;;;;;5049731;28;20252;-78
2022/06/07 05:31:03;;;;;;;0.60;0.60;;;23.40;76.90;;;;;;5048999;28;20447;-79
2022/06/07 05:33:29;;;;;;;1.53;0.50;;;23.80;60.10;;;;;;5048007;28;20453;-79
2022/06/07 05:35:56;;;;;;;0.60;0.60;;;23.90;59.70;;;;;;5048319;28;20246;-79
2022/06/07 05:38:21;;;;;;;0.60;0.60;;;23.90;60.00;;;;;;5047040;28;20267;-79
2022/06/07 05:40:47;;;;;;;0.83;0.50;;;23.90;59.90;;;;;;5048642;28;20565;-79
2022/06/07 05:43:13;;;;;;;0.80;0.53;;;23.90;60.20;;;;;;5029221;28;20550;-79
2022/06/07 05:45:39;;;;;;;0.93;0.93;;;23.90;60.20;;;;;;5049475;28;20230;-79
2022/06/07 05:48:05;;;;;;;1.33;0.50;;;23.70;60.10;;;;;;5049600;28;20865;-79
2022/06/07 05:50:31;;;;;;;0.90;0.60;;;23.60;60.10;;;;;;5049432;28;20196;-79
2022/06/07 05:52:57;;;;;;;0.50;0.50;;;23.60;60.00;;;;;;5064149;28;21162;-80
2022/06/07 05:55:22;;;;;;;0.70;0.47;;;23.90;60.40;;;;;;5043604;28;20253;-79
2022/06/07 05:57:54;;;;;;;2.10;0.60;;;24.00;60.40;;;;;;5050123;28;20625;-79
2022/06/07 06:00:20;;;;;;;1.37;0.60;;;23.40;59.90;;;;;;5053043;28;20250;-79
2022/06/07 06:02:46;;;;;;;0.60;0.40;;;24.40;60.30;;;;;;5053122;28;20466;-79
2022/06/07 06:05:12;;;;;;;0.53;0.53;;;23.60;60.00;;;;;;5053268;28;20488;-80
2022/06/07 06:10:19;;;;;;;0.57;0.57;;;24.00;60.20;;;;;;5053315;28;20204;-79
2022/06/07 06:10:24;;;;;;;0.60;0.60;;;23.80;60.30;;;;;;5052845;28;20191;-80
2022/06/07 06:12:49;;;;;;;2.00;0.60;;;23.60;60.30;;;;;;5035578;28;20987;-81
2022/06/07 06:15:15;;;;;;;0.50;0.40;;;23.90;60.50;;;;;;5051950;28;20430;-81
2022/06/07 06:17:44;;;;;;;1.20;0.67;;;23.60;60.20;;;;;;5049638;28;20192;-82
2022/06/07 06:20:10;;;;;;;0.50;0.40;;;24.10;60.90;;;;;;5043774;28;20267;-79
2022/06/07 06:22:36;;;;;;;0.50;0.50;;;23.60;60.10;;;;;;5043435;28;20843;-79
2022/06/07 06:25:04;;;;;;;0.50;0.50;;;23.50;60.50;;;;;;5053418;28;20439;-79
2022/06/07 06:27:30;;;;;;;0.60;0.60;;;23.60;60.70;;;;;;5033410;28;20519;-75
2022/06/07 06:29:56;;;;;;;0.67;0.67;;;23.90;61.00;;;;;;5051680;28;20439;-75
2022/06/07 06:32:21;;;;;;;0.57;0.53;;;23.60;61.40;;;;;;5046401;28;20517;-75
2022/06/07 06:34:47;;;;;;;0.70;0.70;;;23.80;61.60;;;;;;5052311;28;20184;-75
2022/06/07 06:37:13;;;;;;;1.13;0.97;;;23.50;61.70;;;;;;5049765;28;20179;-75
2022/06/07 06:39:39;;;;;;;0.60;0.60;;;24.10;61.80;;;;;;5051604;28;20611;-75
2022/06/07 06:42:05;;;;;;;1.97;0.70;;;24.20;62.30;;;;;;5051576;28;20437;-75
2022/06/07 06:44:30;;;;;;;0.80;0.60;;;23.80;61.10;;;;;;5051398;28;20208;-75
2022/06/07 06:46:57;;;;;;;0.60;0.60;;;24.30;61.50;;;;;;5051856;28;20598;-75
2022/06/07 06:49:23;;;;;;;0.60;0.60;;;24.00;80.20;;;;;;5051512;28;20224;-75
2022/06/07 06:51:48;;;;;;;1.03;0.50;;;24.10;62.10;;;;;;5051779;28;20502;-75
2022/06/07 06:54:15;;;;;;;0.60;0.60;;;24.10;61.80;;;;;;5049040;28;20189;-79
2022/06/07 06:56:41;;;;;;;0.60;0.50;;;24.50;61.80;;;;;;5052751;28;20176;-79
2022/06/07 06:59:06;;;;;;;1.03;0.60;;;23.90;61.30;;;;;;5044084;28;20812;-79
2022/06/07 07:01:34;;;;;;;1.00;0.70;;;24.30;61.30;;;;;;5048106;28;20240;-79
2022/06/07 07:04:03;;;;;;;1.00;0.70;;;24.50;61.00;;;;;;5051391;28;20184;-79
2022/06/07 07:06:28;;;;;;;1.23;0.73;;;24.40;61.10;;;;;;5051822;28;20977;-79
2022/06/07 07:08:55;;;;;;;0.60;0.57;;;24.30;61.30;;;;;;5032951;28;20490;-79
2022/06/07 07:11:28;;;;;;;0.83;0.60;;;24.40;61.10;;;;;;5053564;28;20202;-79
2022/06/07 07:13:56;;;;;;;1.83;0.80;;;23.90;59.00;;;;;;5051733;28;20548;-79
2022/06/07 07:16:25;;;;;;;0.90;0.70;;;23.90;61.00;;;;;;5050277;28;20438;-79
2022/06/07 07:18:51;;;;;;;1.37;0.70;;;24.20;60.80;;;;;;5051925;28;20743;-80
2022/06/07 07:21:21;;;;;;;0.83;0.60;;;24.00;61.10;;;;;;5051316;28;20473;-79
2022/06/07 07:23:46;;;;;;;0.83;0.73;;;23.90;61.20;;;;;;5034386;28;20411;-79
2022/06/07 07:26:15;;;;;;;1.37;0.93;;;24.20;61.30;;;;;;5051998;28;20462;-79
2022/06/07 07:28:41;;;;;;;0.60;0.60;;;24.20;60.80;;;;;;5033955;28;20172;-79
2022/06/07 07:31:16;;;;;;;2.10;0.70;;;24.60;61.70;;;;;;5043246;28;20810;-79
2022/06/07 07:33:42;;;;;;;2.40;0.70;;;23.90;58.90;;;;;;5045327;28;20258;-79
2022/06/07 07:36:08;;;;;;;3.60;0.70;;;24.30;61.40;;;;;;5049243;28;20462;-79
2022/06/07 07:38:34;;;;;;;0.70;0.70;;;23.90;60.70;;;;;;5050951;28;20192;-79
2022/06/07 07:41:01;;;;;;;0.80;0.70;;;23.90;60.50;;;;;;5050976;28;20467;-79
2022/06/07 07:43:27;;;;;;;1.00;0.90;;;24.30;60.70;;;;;;5048296;28;20424;-79
2022/06/07 07:45:54;;;;;;;2.67;0.60;;;25.50;62.00;;;;;;5049763;28;20415;-79
2022/06/07 07:48:21;;;;;;;3.20;1.00;;;23.90;60.90;;;;;;5052475;28;20199;-80
2022/06/07 07:50:47;;;;;;;1.20;1.10;;;24.30;61.10;;;;;;5052402;28;20441;-79
2022/06/07 07:53:14;;;;;;;2.20;1.53;;;24.30;60.90;;;;;;5051640;28;20411;-78
2022/06/07 07:55:44;;;;;;;4.83;0.90;;;23.90;60.80;;;;;;5052852;28;20422;-79
2022/06/07 07:58:11;;;;;;;0.60;0.60;;;22.90;60.10;;;;;;5070184;28;20889;-79
2022/06/07 08:00:36;;;;;;;1.20;1.03;;;24.50;61.40;;;;;;5048069;28;20526;-80
2022/06/07 08:03:02;;;;;;;0.97;0.87;;;24.40;60.90;;;;;;5056181;28;20443;-77
2022/06/07 08:05:31;;;;;;;2.90;0.80;;;24.70;61.00;;;;;;5050798;28;20175;-78
2022/06/07 08:07:57;;;;;;;1.40;0.77;;;24.30;60.70;;;;;;5064647;28;20245;-79
2022/06/07 08:10:26;;;;;;;3.33;0.97;;;24.00;59.90;;;;;;5035580;28;20508;-78
2022/06/07 08:12:52;;;;;;;0.80;0.80;;;24.10;60.80;;;;;;5034815;28;20509;-78
2022/06/07 08:15:20;;;;;;;1.70;0.80;;;24.70;61.20;;;;;;5056262;28;20842;-77
2022/06/07 08:17:46;;;;;;;2.00;1.00;;;24.00;78.80;;;;;;5052425;28;20180;-78
2022/06/07 08:20:12;;;;;;;2.13;1.00;;;24.30;61.00;;;;;;5052692;28;20431;-78
2022/06/07 08:22:38;;;;;;;0.97;0.70;;;24.00;60.30;;;;;;5052446;28;20670;-78
2022/06/07 08:25:04;;;;;;;0.70;0.70;;;24.90;61.30;;;;;;5052336;28;20447;-78
2022/06/07 08:27:29;;;;;;;5.63;1.00;;;24.00;60.20;;;;;;5051526;28;20295;-77
2022/06/07 08:29:55;;;;;;;2.43;1.13;;;24.40;60.70;;;;;;5051672;28;20947;-78
2022/06/07 08:32:21;;;;;;;1.60;0.90;;;;;;;;;;5052280;28;20618;-78
2022/06/07 08:37:33;;;;;;;0.73;0.70;;;24.30;59.00;;;;;;5051837;28;20511;-78
2022/06/07 08:40:00;;;;;;;1.80;0.67;;;24.20;77.90;;;;;;5051632;28;20533;-78
2022/06/07 08:42:33;;;;;;;2.30;0.70;;;24.30;77.80;;;;;;5051406;28;20795;-79
2022/06/07 08:45:08;;;;;;;0.70;0.70;;;24.10;60.00;;;;;;5033103;28;20943;-78
2022/06/07 08:47:48;;;;;;;4.23;0.80;;;23.50;57.90;;;;;;5050664;28;20835;-78
2022/06/07 08:50:32;;;;;;;0.70;0.70;;;24.00;58.10;;;;;;5033270;28;20442;-80
2022/06/07 08:53:03;;;;;;;1.83;0.60;;;24.20;58.00;;;;;;5032792;28;20946;-77
2022/06/07 08:55:46;;;;;;;1.00;0.70;;;24.50;60.20;;;;;;5031202;28;20412;-78
2022/06/07 08:58:19;;;;;;;0.50;0.50;;;24.10;59.50;;;;;;5045853;28;20418;-78
2022/06/07 09:00:57;;;;;;;0.60;0.50;;;24.70;59.30;;;;;;5032046;28;20485;-78
2022/06/07 09:03:56;;;;;;;0.57;0.50;;;24.00;57.60;;;;;;5036364;28;20529;-77
2022/06/07 09:06:25;;;;;;;0.80;0.80;;;24.00;57.60;;;;;;5044395;28;20474;-78
2022/06/07 09:08:57;;;;;;;0.70;0.70;;;24.20;59.10;;;;;;5049955;28;20497;-78
2022/06/07 09:14:50;;;;;;;0.50;0.40;;;23.90;58.70;;;;;;5035823;28;20965;-78
2022/06/07 09:17:20;;;;;;;0.60;0.60;;;24.00;56.70;;;;;;5060078;28;20433;-79
2022/06/07 09:19:48;;;;;;;4.30;0.83;;;24.40;58.90;;;;;;5051814;28;20446;-78
2022/06/07 09:22:25;;;;;;;3.80;0.77;;;24.60;58.50;;;;;;5047024;28;20493;-78
2022/06/07 09:24:57;;;;;;;1.33;0.70;;;24.40;58.40;;;;;;5049160;28;20430;-78
2022/06/07 09:27:27;;;;;;;2.90;0.77;;;24.40;58.30;;;;;;5046406;28;20466;-78
2022/06/07 09:29:56;;;;;;;2.90;0.80;;;24.50;58.50;;;;;;5046050;28;20960;-78
2022/06/07 09:32:25;;;;;;;6.70;0.67;;;24.00;58.10;;;;;;5049633;28;20437;-78
2022/06/07 09:35:00;;;;;;;0.50;0.40;;;24.70;58.20;;;;;;5051093;28;20564;-78
2022/06/07 09:37:30;;;;;;;0.90;0.50;;;24.00;58.40;;;;;;5032607;28;20790;-78
2022/06/07 09:40:19;;;;;;;3.03;0.87;;;24.30;58.50;;;;;;5050318;28;20437;-78
2022/06/07 09:42:53;;;;;;;0.70;0.50;;;24.00;56.20;;;;;;5049477;28;20415;-78
2022/06/07 09:45:29;;;;;;;2.10;0.50;;;24.20;58.20;;;;;;5048978;28;20790;-78
2022/06/07 09:47:55;;;;;;;0.70;0.70;;;24.30;58.20;;;;;;5032390;28;20548;-78
2022/06/07 09:50:31;;;;;;;0.60;0.40;;;24.20;81.20;;;;;;5050223;28;20496;-78
2022/06/07 09:53:06;;;;;;;0.60;0.50;;;24.40;57.90;;;;;;5032136;28;20306;-78
2022/06/07 09:55:42;;;;;;;0.67;0.67;;;24.30;57.70;;;;;;5050054;28;20844;-77
2022/06/07 09:58:34;;;;;;;0.70;0.60;;;24.80;57.90;;;;;;5050050;28;20484;-78
2022/06/07 10:01:15;;;;;;;0.50;0.40;;;24.00;55.60;;;;;;5030103;28;20467;-78
2022/06/07 10:04:16;;;;;;;0.50;0.50;;;24.00;55.40;;;;;;5048629;28;20543;-78
2022/06/07 10:06:49;;;;;;;0.60;0.50;;;24.00;55.40;;;;;;5050031;28;20465;-78
2022/06/07 10:09:47;;;;;;;0.50;0.40;;;23.90;57.30;;;;;;5050138;28;20851;-78
2022/06/07 10:12:30;;;;;;;1.00;0.77;;;22.90;54.90;;;;;;5049692;28;20391;-77
2022/06/07 10:15:14;;;;;;;1.53;0.67;;;24.00;55.40;;;;;;5049368;28;20882;-78
2022/06/07 10:17:43;;;;;;;0.50;0.40;;;24.70;57.80;;;;;;5031829;28;20426;-78
2022/06/07 10:20:32;;;;;;;0.50;0.50;;;24.00;55.60;;;;;;5049922;28;20441;-78
2022/06/07 10:23:19;;;;;;;2.93;0.50;;;24.00;55.40;;;;;;5049816;28;20399;-78
2022/06/07 10:25:57;;;;;;;0.70;0.50;;;24.10;55.30;;;;;;5031730;28;20450;-78
2022/06/07 10:28:32;;;;;;;0.50;0.40;;;24.00;55.20;;;;;;5050275;28;20423;-78
2022/06/07 10:31:13;;;;;;;0.70;0.60;;;24.50;57.20;;;;;;5037387;28;20451;-78
2022/06/07 10:33:57;;;;;;;0.73;0.50;;;24.00;55.20;;;;;;5042304;28;20447;-78
2022/06/07 10:36:51;;;;;;;0.50;0.40;;;25.30;57.80;;;;;;5049300;28;20417;-78
2022/06/07 10:39:40;;;;;;;0.50;0.50;;;26.00;75.60;;;;;;5049347;28;20403;-78
2022/06/07 10:42:41;;;;;;;0.50;0.40;;;24.00;55.10;;;;;;5048878;28;20864;-77
2022/06/07 10:45:19;;;;;;;0.80;0.50;;;23.90;55.10;;;;;;5051986;28;20749;-78
2022/06/07 10:47:47;;;;;;;1.33;0.80;;;24.00;57.10;;;;;;5052224;28;20605;-78
2022/06/07 10:50:26;;;;;;;0.53;0.50;;;24.00;56.60;;;;;;5051441;28;20455;-77
2022/06/07 10:53:08;;;;;;;2.40;0.70;;;24.30;57.30;;;;;;5033319;28;21203;-78
2022/06/07 10:55:41;;;;;;;0.50;0.40;;;24.00;74.90;;;;;;5051882;28;20441;-78
2022/06/07 10:58:39;;;;;;;1.17;0.70;;;24.50;57.70;;;;;;5033440;28;20419;-78
2022/06/07 11:01:15;;;;;;;1.10;0.50;;;24.10;56.90;;;;;;5051833;28;20438;-78
2022/06/07 11:03:46;;;;;;;0.90;0.60;;;24.20;79.90;;;;;;5052177;28;20421;-78
2022/06/07 11:09:20;;;;;;;0.50;0.50;;;24.10;55.60;;;;;;5052697;28;20629;-79
2022/06/07 11:11:48;;;;;;;0.63;0.57;;;24.30;57.30;;;;;;5048610;28;20426;-78
2022/06/07 11:15:02;;;;;;;1.57;0.80;;;25.30;57.90;;;;;;5052019;28;20407;-78
2022/06/07 11:17:33;;;;;;;0.87;0.87;;;24.00;55.30;;;;;;4972157;28;20828;-79
2022/06/07 11:20:18;;;;;;;0.70;0.50;;;24.00;55.40;;;;;;5045118;28;20465;-78
2022/06/07 11:23:02;;;;;;;0.60;0.57;;;24.00;55.30;;;;;;5050473;28;20422;-79
2022/06/07 11:25:57;;;;;;;0.60;0.60;;;23.40;55.00;;;;;;5049337;28;20895;-78
2022/06/07 11:28:32;;;;;;;1.50;0.77;;;24.00;55.30;;;;;;5051284;28;21042;-78
2022/06/07 11:31:21;;;;;;;1.10;0.60;;;24.30;57.60;;;;;;5050496;28;20499;-75
2022/06/07 11:33:52;;;;;;;4.40;0.63;;;24.40;57.60;;;;;;5020548;28;20431;-74
2022/06/07 11:36:20;;;;;;;0.83;0.83;;;24.30;57.40;;;;;;5047560;28;20479;-74
2022/06/07 11:38:58;;;;;;;3.23;0.70;;;24.30;57.80;;;;;;5044759;28;20423;-75
2022/06/07 11:41:53;;;;;;;0.87;0.87;;;24.40;81.90;;;;;;5047900;28;20821;-75
2022/06/07 11:44:19;;;;;;;1.43;0.67;;;24.40;58.50;;;;;;5050325;28;20565;-74
2022/06/07 11:46:50;;;;;;;1.60;0.90;;;24.50;58.00;;;;;;5050049;28;20454;-75
2022/06/07 11:49:24;;;;;;;1.10;1.00;;;24.50;81.80;;;;;;5050262;28;20654;-74
2022/06/07 11:52:11;;;;;;;0.50;0.50;;;24.40;57.10;;;;;;5050581;28;20845;-74
2022/06/07 11:54:50;;;;;;;0.53;0.53;;;25.20;57.20;;;;;;5049431;28;20414;-74
2022/06/07 11:57:19;;;;;;;2.00;0.80;;;24.30;58.80;;;;;;5045850;28;20473;-75
2022/06/07 11:59:51;;;;;;;0.93;0.60;;;24.30;58.20;;;;;;5041111;28;20474;-75
2022/06/07 12:02:17;;;;;;;0.80;0.80;;;24.30;57.00;;;;;;5045371;28;20469;-75
2022/06/07 12:04:45;;;;;;;1.73;0.60;;;24.30;59.20;;;;;;5050050;28;20841;-75
2022/06/07 12:07:24;;;;;;;1.17;0.60;;;24.60;59.30;;;;;;5062888;28;20246;-75
2022/06/07 12:09:55;;;;;;;0.50;0.50;;;24.50;58.40;;;;;;5049771;28;20508;-74
2022/06/07 12:12:31;;;;;;;2.47;0.60;;;24.40;58.80;;;;;;5049791;28;20437;-74
2022/06/07 12:15:39;;;;;;;0.90;0.80;;;24.80;59.40;;;;;;5048573;28;20906;-74
2022/06/07 12:18:15;;;;;;;0.93;0.50;;;24.50;57.50;;;;;;5049914;28;20845;-74
2022/06/07 12:20:41;;;;;;;1.67;0.70;;;24.50;59.40;;;;;;5049699;28;20677;-74
2022/06/07 12:23:45;;;;;;;1.10;0.80;;;24.40;60.90;;;;;;5049996;28;20423;-75
2022/06/07 12:26:24;;;;;;;3.70;0.70;;;24.00;57.50;;;;;;5045763;28;20464;-75
2022/06/07 12:28:58;;;;;;;1.60;0.60;;;24.60;60.80;;;;;;5046504;28;20922;-75
2022/06/07 12:31:32;;;;;;;0.77;0.77;;;24.60;60.20;;;;;;5046062;28;21103;-74
2022/06/07 12:34:01;;;;;;;0.87;0.70;;;24.80;79.30;;;;;;5032764;28;20869;-75
2022/06/07 12:36:33;;;;;;;0.50;0.50;;;25.00;61.10;;;;;;5046637;28;20434;-75
2022/06/07 12:39:02;;;;;;;0.60;0.60;;;25.10;61.10;;;;;;5044686;28;20711;-75
2022/06/07 12:41:28;;;;;;;3.70;0.60;;;24.10;60.60;;;;;;5042776;28;20446;-75
2022/06/07 12:43:59;;;;;;;0.70;0.70;;;24.60;60.90;;;;;;5048495;28;20425;-76
2022/06/07 12:46:42;;;;;;;0.70;0.70;;;24.60;60.40;;;;;;5045331;28;20222;-75
2022/06/07 12:49:24;;;;;;;0.60;0.60;;;24.60;60.60;;;;;;5047969;28;20418;-76
2022/06/07 12:52:02;;;;;;;1.10;0.50;;;24.70;58.20;;;;;;5047163;28;20422;-76
2022/06/07 12:54:29;;;;;;;2.70;0.73;;;24.60;61.00;;;;;;5049926;28;20446;-76
2022/06/07 12:56:59;;;;;;;0.70;0.70;;;24.90;85.00;;;;;;5047956;28;20422;-75
2022/06/07 12:59:39;;;;;;;0.50;0.50;;;23.90;78.70;;;;;;5048247;28;20718;-76
2022/06/07 13:02:25;;;;;;;0.70;0.70;;;24.70;58.40;;;;;;5049072;28;20522;-75
2022/06/07 13:04:57;;;;;;;1.10;0.40;;;24.70;58.40;;;;;;5041466;28;20429;-75
2022/06/07 13:07:47;;;;;;;0.50;0.50;;;24.70;60.70;;;;;;5050739;28;20965;-75
2022/06/07 13:10:23;;;;;;;1.07;0.60;;;24.70;61.00;;;;;;5042171;28;20454;-75
2022/06/07 13:12:52;;;;;;;0.60;0.60;;;24.70;58.60;;;;;;5048208;28;20480;-75
2022/06/07 13:15:22;;;;;;;0.90;0.57;;;24.80;61.00;;;;;;5050433;28;20422;-75
2022/06/07 13:18:01;;;;;;;0.80;0.80;;;24.80;60.90;;;;;;5051394;28;20442;-75
2022/06/07 13:20:37;;;;;;;0.97;0.60;;;24.80;58.60;;;;;;5049126;28;20516;-75
2022/06/07 13:23:25;;;;;;;0.60;0.60;;;24.80;58.70;;;;;;5049211;28;20438;-76
2022/06/07 13:25:54;;;;;;;1.03;0.60;;;24.90;60.90;;;;;;5048273;28;20504;-76